LGTS/SKG METAR and TAF weather

Enter ICAO airport designator
Station Type Date Time Source
LGTS METAR 2022/01/29 13:20 UTC NOAA

LGTS 291320Z 00000KT 9999 BKN030 08/M02 Q1023 NOSIG


Station Type Date Time Source
LGTS Decoded METAR 2022/01/29 13:20 UTC NOAA

Thessaloniki Airport , Greece (LGTS) 40-31N 022-58E 4M
Jan 29, 2022 - 08:20 AM EST / 2022.01.29 1320 UTC
Wind: Calm:0
Visibility: greater than 7 mile(s):0
Sky conditions: mostly cloudy
Temperature: 46 F (8 C)
Dew Point: 28 F (-2 C)
Relative Humidity: 49%
Pressure (altimeter): 30.21 in. Hg (1023 hPa)
ob: LGTS 291320Z 00000KT 9999 BKN030 08/M02 Q1023 NOSIG
cycle: 13

Station Type Date Time Source
LGTS TAF 2022/01/29 12:12 UTC NOAA

TAF LGTS 291100Z 2912/3012 35010KT 9999 FEW010 BKN025
BECMG 2912/2914 FEW030

Example: see airport list